Time;durP1;ratioP1;P1;durP2;ratioP2;P2;SDS_P1;SDS_P2;PMS_P1;PMS_P2;Temp;Humidity;BMP_temperature;BMP_pressure;BME280_temperature;BME280_humidity;BME280_pressure;Samples;Min_cycle;Max_cycle;Signal;HPM_P1;HPM_P2
2022/07/11 00:02:07;;;;;;;2.28;0.90;;;;;;;;;;5015282;28;20075;-81
2022/07/11 00:04:33;;;;;;;3.42;1.10;;;;;;;;;;5019674;28;20026;-81
2022/07/11 00:07:00;;;;;;;1.70;0.80;;;;;;;;;;4999606;28;20033;-82
2022/07/11 00:09:26;;;;;;;3.35;1.10;;;;;;;;;;5000816;28;20033;-82
2022/07/11 00:11:52;;;;;;;3.10;1.00;;;;;;;;;;5000171;28;20042;-81
2022/07/11 00:14:19;;;;;;;2.65;1.00;;;;;;;;;;5001070;28;20026;-81
2022/07/11 00:16:45;;;;;;;2.33;0.80;;;;;;;;;;5005674;28;20026;-82
2022/07/11 00:19:11;;;;;;;3.10;1.02;;;;;;;;;;4999457;28;20027;-81
2022/07/11 00:21:37;;;;;;;2.70;1.13;;;;;;;;;;5002308;28;20026;-80
2022/07/11 00:24:04;;;;;;;3.90;1.77;;;;;;;;;;5003084;28;20029;-82
2022/07/11 00:26:30;;;;;;;3.78;1.25;;;;;;;;;;5000626;28;20023;-82
2022/07/11 00:28:56;;;;;;;1.92;0.90;;;;;;;;;;4998872;28;20037;-82
2022/07/11 00:31:26;;;;;;;2.35;1.00;;;;;;;;;;5008442;28;20297;-82
2022/07/11 00:33:52;;;;;;;2.90;1.00;;;;;;;;;;4999750;28;20022;-82
2022/07/11 00:36:18;;;;;;;2.88;0.95;;;;;;;;;;5000025;28;20105;-82
2022/07/11 00:38:44;;;;;;;2.28;1.00;;;;;;;;;;5001363;28;20032;-81
2022/07/11 00:41:10;;;;;;;2.65;0.90;;;;;;;;;;5002309;28;20014;-82
2022/07/11 00:43:40;;;;;;;3.08;1.08;;;;;;;;;;5005666;28;20022;-81
2022/07/11 00:46:06;;;;;;;2.33;0.80;;;;;;;;;;5007898;28;20123;-82
2022/07/11 00:48:32;;;;;;;3.10;0.90;;;;;;;;;;4999578;28;20039;-81
2022/07/11 00:50:59;;;;;;;2.00;1.02;;;;;;;;;;4999585;28;20511;-82
2022/07/11 00:53:25;;;;;;;3.03;1.20;;;;;;;;;;4998399;28;20035;-83
2022/07/11 00:55:55;;;;;;;3.13;1.17;;;;;;;;;;5009080;28;20029;-82
2022/07/11 00:58:21;;;;;;;2.15;1.00;;;;;;;;;;5014011;28;20034;-81
2022/07/11 01:00:48;;;;;;;3.30;1.00;;;;;;;;;;5000942;28;20085;-82
2022/07/11 01:03:14;;;;;;;2.85;1.13;;;;;;;;;;4999791;28;20098;-83
2022/07/11 01:05:40;;;;;;;2.72;1.08;;;;;;;;;;4997656;28;20027;-82
2022/07/11 01:08:06;;;;;;;3.30;0.95;;;;;;;;;;4999273;28;20031;-82
2022/07/11 01:10:32;;;;;;;2.65;1.08;;;;;;;;;;4994172;28;20034;-81
2022/07/11 01:12:58;;;;;;;2.83;0.98;;;;;;;;;;5013855;28;20123;-83
2022/07/11 01:15:24;;;;;;;2.60;0.90;;;;;;;;;;5016927;28;20048;-82
2022/07/11 01:17:54;;;;;;;2.58;1.00;;;;;;;;;;5018996;28;20053;-81
2022/07/11 01:20:20;;;;;;;2.53;1.00;;;;;;;;;;5002928;28;20145;-82
2022/07/11 01:22:53;;;;;;;2.97;1.10;;;;;;;;;;5013558;28;20030;-83
2022/07/11 01:25:34;;;;;;;4.07;1.00;;;;;;;;;;5002736;28;20041;-82
2022/07/11 01:28:01;;;;;;;3.05;1.10;;;;;;;;;;4997742;28;20030;-82
2022/07/11 01:30:28;;;;;;;2.42;1.00;;;;;;;;;;4998502;28;20442;-82
2022/07/11 01:32:54;;;;;;;3.33;1.05;;;;;;;;;;4995614;28;20038;-83
2022/07/11 01:35:21;;;;;;;2.90;1.10;;;;;;;;;;5002483;28;20115;-82
2022/07/11 01:37:47;;;;;;;2.63;1.00;;;;;;;;;;4998055;28;20034;-83
2022/07/11 01:40:13;;;;;;;2.38;0.98;;;;;;;;;;4998545;28;20050;-82
2022/07/11 01:42:39;;;;;;;3.17;1.02;;;;;;;;;;5001173;28;20034;-80
2022/07/11 01:45:05;;;;;;;3.03;0.90;;;;;;;;;;5018224;28;20065;-79
2022/07/11 01:47:31;;;;;;;2.63;1.10;;;;;;;;;;5024133;28;20038;-81
2022/07/11 01:49:58;;;;;;;2.22;0.95;;;;;;;;;;4999005;28;20033;-81
2022/07/11 01:52:24;;;;;;;3.58;1.10;;;;;;;;;;4998462;28;20030;-82
2022/07/11 01:54:50;;;;;;;2.22;0.90;;;;;;;;;;4995034;28;20069;-83
2022/07/11 01:57:16;;;;;;;2.63;1.15;;;;;;;;;;4997628;28;20022;-82
2022/07/11 01:59:42;;;;;;;3.65;1.00;;;;;;;;;;5012417;28;20034;-82
2022/07/11 02:02:08;;;;;;;2.80;1.20;;;;;;;;;;5004261;28;20559;-83
2022/07/11 02:04:34;;;;;;;2.40;0.90;;;;;;;;;;4993366;28;20022;-82
2022/07/11 02:07:00;;;;;;;2.60;0.95;;;;;;;;;;5015488;28;20029;-82
2022/07/11 02:09:26;;;;;;;2.95;1.08;;;;;;;;;;5016473;28;20036;-82
2022/07/11 02:11:52;;;;;;;2.55;1.00;;;;;;;;;;5016158;28;20089;-82
2022/07/11 02:14:19;;;;;;;3.30;1.40;;;;;;;;;;4996500;28;20096;-82
2022/07/11 02:16:45;;;;;;;2.53;0.93;;;;;;;;;;4996582;28;20132;-83
2022/07/11 02:19:11;;;;;;;2.58;0.90;;;;;;;;;;5007623;28;20030;-83
2022/07/11 02:21:38;;;;;;;2.88;1.13;;;;;;;;;;5008156;28;20022;-83
2022/07/11 02:24:04;;;;;;;2.58;1.00;;;;;;;;;;4994633;28;20473;-82
2022/07/11 02:26:31;;;;;;;2.90;1.10;;;;;;;;;;4996215;28;20026;-83
2022/07/11 02:28:57;;;;;;;3.05;1.10;;;;;;;;;;4996477;28;20545;-82
2022/07/11 02:31:24;;;;;;;3.25;1.00;;;;;;;;;;5000981;28;20030;-82
2022/07/11 02:33:50;;;;;;;2.47;1.15;;;;;;;;;;5016309;28;20453;-81
2022/07/11 02:36:16;;;;;;;3.70;1.50;;;;;;;;;;4996351;28;20084;-82
2022/07/11 02:38:42;;;;;;;2.60;0.70;;;;;;;;;;4996265;28;20489;-83
2022/07/11 02:41:08;;;;;;;2.10;0.90;;;;;;;;;;4996323;28;20053;-81
2022/07/11 02:43:35;;;;;;;2.83;1.00;;;;;;;;;;5000943;28;20397;-82
2022/07/11 02:46:01;;;;;;;3.08;0.90;;;;;;;;;;5000909;28;20030;-81
2022/07/11 02:48:28;;;;;;;2.35;1.00;;;;;;;;;;4999544;28;20030;-82
2022/07/11 02:50:54;;;;;;;2.20;0.88;;;;;;;;;;4999813;28;20038;-82
2022/07/11 02:53:20;;;;;;;2.40;0.88;;;;;;;;;;4982025;28;20027;-83
2022/07/11 02:55:48;;;;;;;3.13;0.90;;;;;;;;;;5006116;28;20026;-82
2022/07/11 02:58:14;;;;;;;3.08;1.15;;;;;;;;;;5002388;28;20034;-82
2022/07/11 03:00:41;;;;;;;2.92;1.10;;;;;;;;;;5001271;28;20096;-82
2022/07/11 03:03:07;;;;;;;2.53;0.98;;;;;;;;;;5001823;28;20034;-82
2022/07/11 03:05:33;;;;;;;2.90;1.00;;;;;;;;;;5005784;28;20085;-83
2022/07/11 03:07:59;;;;;;;4.15;1.17;;;;;;;;;;5018369;28;20030;-82
2022/07/11 03:10:25;;;;;;;3.45;1.23;;;;;;;;;;5002929;28;20109;-82
2022/07/11 03:12:51;;;;;;;2.30;1.05;;;;;;;;;;5002855;28;20080;-82
2022/07/11 03:15:18;;;;;;;3.50;1.30;;;;;;;;;;5019794;28;20022;-82
2022/07/11 03:17:44;;;;;;;3.40;1.30;;;;;;;;;;5001379;28;20113;-82
2022/07/11 03:20:10;;;;;;;3.53;1.23;;;;;;;;;;5000910;28;20027;-83
2022/07/11 03:22:36;;;;;;;4.38;1.30;;;;;;;;;;4999639;28;20018;-82
2022/07/11 03:25:05;;;;;;;4.05;1.25;;;;;;;;;;5006602;28;20033;-81
2022/07/11 03:27:32;;;;;;;3.60;1.30;;;;;;;;;;5011137;28;20061;-83
2022/07/11 03:29:58;;;;;;;5.13;1.90;;;;;;;;;;5001589;28;20026;-83
2022/07/11 03:32:24;;;;;;;3.03;1.30;;;;;;;;;;5001976;28;20099;-82
2022/07/11 03:37:35;;;;;;;4.20;1.50;;;;;;;;;;5002074;28;20125;-83
2022/07/11 03:40:01;;;;;;;3.20;1.30;;;;;;;;;;5002433;28;20486;-83
2022/07/11 03:42:28;;;;;;;3.70;1.20;;;;;;;;;;4999834;28;20019;-84
2022/07/11 03:44:54;;;;;;;4.05;1.40;;;;;;;;;;5002195;28;20023;-82
2022/07/11 03:47:20;;;;;;;3.65;1.20;;;;;;;;;;5002028;28;20489;-83
2022/07/11 03:49:49;;;;;;;7.20;2.60;;;;;;;;;;5021296;28;20037;-83
2022/07/11 03:52:15;;;;;;;3.55;1.40;;;;;;;;;;5007682;28;20105;-82
2022/07/11 03:54:43;;;;;;;3.13;1.40;;;;;;;;;;5003298;28;20030;-83
2022/07/11 03:57:09;;;;;;;4.75;1.92;;;;;;;;;;5019531;28;20032;-82
2022/07/11 03:59:35;;;;;;;4.03;1.40;;;;;;;;;;5007477;28;20041;-83
2022/07/11 04:02:01;;;;;;;4.07;1.63;;;;;;;;;;5002956;28;20485;-82
2022/07/11 04:04:27;;;;;;;3.58;1.20;;;;;;;;;;5000494;28;20030;-84
2022/07/11 04:06:53;;;;;;;3.88;1.38;;;;;;;;;;4997654;28;20033;-82
2022/07/11 04:09:19;;;;;;;4.40;1.67;;;;;;;;;;5014887;28;20042;-82
2022/07/11 04:11:45;;;;;;;3.17;1.10;;;;;;;;;;5000109;28;20069;-83
2022/07/11 04:14:11;;;;;;;6.68;1.75;;;;;;;;;;5020363;28;20041;-83
2022/07/11 04:16:37;;;;;;;2.83;1.15;;;;;;;;;;5009183;28;20082;-83
2022/07/11 04:19:04;;;;;;;2.83;1.40;;;;;;;;;;5003206;28;20113;-83
2022/07/11 04:21:30;;;;;;;3.72;1.15;;;;;;;;;;5019338;28;20022;-82
2022/07/11 04:23:56;;;;;;;4.25;1.70;;;;;;;;;;5017976;28;20076;-83
2022/07/11 04:26:22;;;;;;;3.13;1.13;;;;;;;;;;5010643;28;20042;-83
2022/07/11 04:28:48;;;;;;;4.13;1.30;;;;;;;;;;5000855;28;20026;-81
2022/07/11 04:31:14;;;;;;;3.55;1.30;;;;;;;;;;5021185;28;20022;-83
2022/07/11 04:33:40;;;;;;;3.22;1.13;;;;;;;;;;5015962;28;21838;-83
2022/07/11 04:36:06;;;;;;;2.85;1.30;;;;;;;;;;5019246;28;20532;-83
2022/07/11 04:38:32;;;;;;;3.00;1.33;;;;;;;;;;5010087;28;20094;-83
2022/07/11 04:40:58;;;;;;;4.35;1.35;;;;;;;;;;5004176;28;20046;-83
2022/07/11 04:43:24;;;;;;;3.28;1.48;;;;;;;;;;5017059;28;20081;-82
2022/07/11 04:45:50;;;;;;;4.95;1.50;;;;;;;;;;5020198;28;20089;-83
2022/07/11 04:48:16;;;;;;;3.25;1.20;;;;;;;;;;5018342;28;20029;-82
2022/07/11 04:50:44;;;;;;;3.45;1.27;;;;;;;;;;5017840;28;20014;-80
2022/07/11 04:53:11;;;;;;;3.78;1.40;;;;;;;;;;5019098;28;20014;-79
2022/07/11 04:55:40;;;;;;;3.50;1.38;;;;;;;;;;5007450;28;20064;-82
2022/07/11 04:58:07;;;;;;;2.50;1.13;;;;;;;;;;5004249;28;20030;-82
2022/07/11 05:00:33;;;;;;;3.05;1.20;;;;;;;;;;4997298;28;20045;-83
2022/07/11 05:02:59;;;;;;;7.13;1.70;;;;;;;;;;4997519;28;20022;-83
2022/07/11 05:05:25;;;;;;;3.47;1.40;;;;;;;;;;5003922;28;20030;-84
2022/07/11 05:07:51;;;;;;;3.47;1.33;;;;;;;;;;5018108;28;20018;-81
2022/07/11 05:10:17;;;;;;;3.60;1.50;;;;;;;;;;5037056;28;20033;-81
2022/07/11 05:12:43;;;;;;;3.47;1.40;;;;;;;;;;5035504;28;20018;-80
2022/07/11 05:15:09;;;;;;;2.58;1.30;;;;;;;;;;5015538;28;20086;-81
2022/07/11 05:17:35;;;;;;;3.92;1.30;;;;;;;;;;5016483;28;20030;-81
2022/07/11 05:20:01;;;;;;;4.65;1.20;;;;;;;;;;5018423;28;20065;-81
2022/07/11 05:22:27;;;;;;;3.33;1.50;;;;;;;;;;5008677;28;20030;-83
2022/07/11 05:24:53;;;;;;;3.22;1.20;;;;;;;;;;4999286;28;20493;-82
2022/07/11 05:27:19;;;;;;;4.30;1.42;;;;;;;;;;5000474;28;20485;-82
2022/07/11 05:29:45;;;;;;;3.72;1.30;;;;;;;;;;5002180;28;20484;-83
2022/07/11 05:32:11;;;;;;;3.03;1.20;;;;;;;;;;4998844;28;20050;-81
2022/07/11 05:34:37;;;;;;;3.60;1.70;;;;;;;;;;4996938;28;20034;-82
2022/07/11 05:37:04;;;;;;;3.28;1.30;;;;;;;;;;5000993;28;20101;-82
2022/07/11 05:39:30;;;;;;;3.50;1.30;;;;;;;;;;4995206;28;20022;-81
2022/07/11 05:41:56;;;;;;;3.42;1.30;;;;;;;;;;5001129;28;20030;-81
2022/07/11 05:44:22;;;;;;;2.97;1.30;;;;;;;;;;5003130;28;20034;-83
2022/07/11 05:46:48;;;;;;;3.33;1.30;;;;;;;;;;4998389;28;20022;-82
2022/07/11 05:49:14;;;;;;;3.30;1.52;;;;;;;;;;4998360;28;20077;-82
2022/07/11 05:51:41;;;;;;;3.95;1.45;;;;;;;;;;5012724;28;20045;-83
2022/07/11 05:54:07;;;;;;;3.42;1.42;;;;;;;;;;5021427;28;20022;-81
2022/07/11 05:56:34;;;;;;;3.83;1.42;;;;;;;;;;5022913;28;20048;-82
2022/07/11 05:59:00;;;;;;;3.15;1.40;;;;;;;;;;5023673;28;20449;-83
2022/07/11 06:01:26;;;;;;;3.78;1.30;;;;;;;;;;5006277;28;20023;-81
2022/07/11 06:03:52;;;;;;;3.78;1.60;;;;;;;;;;5010355;28;20023;-81
2022/07/11 06:06:19;;;;;;;3.17;1.20;;;;;;;;;;4996903;28;20029;-83
2022/07/11 06:08:45;;;;;;;4.28;1.35;;;;;;;;;;4994871;28;20038;-83
2022/07/11 06:11:12;;;;;;;3.78;1.48;;;;;;;;;;4997341;28;20022;-82
2022/07/11 06:13:42;;;;;;;3.78;1.40;;;;;;;;;;4997629;28;20621;-83
2022/07/11 06:16:11;;;;;;;3.60;1.23;;;;;;;;;;5015734;28;20042;-83
2022/07/11 06:18:37;;;;;;;3.55;1.17;;;;;;;;;;5015575;28;20026;-81
2022/07/11 06:21:03;;;;;;;3.92;2.03;;;;;;;;;;5008275;28;20026;-82
2022/07/11 06:23:30;;;;;;;3.33;1.27;;;;;;;;;;4998751;28;20445;-84
2022/07/11 06:25:56;;;;;;;5.00;1.52;;;;;;;;;;5016343;28;20025;-84
2022/07/11 06:28:22;;;;;;;4.13;1.63;;;;;;;;;;5010741;28;20065;-83
2022/07/11 06:30:49;;;;;;;2.80;1.30;;;;;;;;;;4991002;28;20071;-81
2022/07/11 06:33:18;;;;;;;5.80;1.77;;;;;;;;;;5009268;28;20026;-81
2022/07/11 06:35:45;;;;;;;3.97;1.40;;;;;;;;;;4994154;28;20042;-83
2022/07/11 06:38:11;;;;;;;3.70;1.35;;;;;;;;;;4998829;28;20049;-81
2022/07/11 06:40:37;;;;;;;7.32;3.50;;;;;;;;;;5002594;28;20041;-82
2022/07/11 06:43:04;;;;;;;4.20;1.90;;;;;;;;;;4999112;28;20023;-81
2022/07/11 06:45:30;;;;;;;4.60;1.67;;;;;;;;;;4995596;28;20406;-82
2022/07/11 06:47:56;;;;;;;3.97;1.30;;;;;;;;;;5012895;28;20030;-81
2022/07/11 06:50:22;;;;;;;5.22;1.55;;;;;;;;;;5017525;28;20081;-82
2022/07/11 06:52:48;;;;;;;3.60;1.60;;;;;;;;;;5016878;28;20045;-80
2022/07/11 06:55:15;;;;;;;3.40;1.35;;;;;;;;;;5017505;28;20033;-83
2022/07/11 06:57:41;;;;;;;4.00;1.60;;;;;;;;;;4998355;28;20065;-82
2022/07/11 07:00:08;;;;;;;3.78;1.30;;;;;;;;;;4995552;28;20038;-83
2022/07/11 07:02:34;;;;;;;3.40;1.30;;;;;;;;;;4996612;28;20027;-83
2022/07/11 07:05:00;;;;;;;5.13;1.40;;;;;;;;;;4993546;28;20396;-83
2022/07/11 07:07:26;;;;;;;3.88;1.50;;;;;;;;;;5007457;28;20018;-82
2022/07/11 07:09:53;;;;;;;5.10;1.83;;;;;;;;;;4999242;28;20034;-83
2022/07/11 07:12:20;;;;;;;5.65;1.60;;;;;;;;;;4989553;28;20019;-82
2022/07/11 07:14:46;;;;;;;6.22;1.77;;;;;;;;;;4994014;28;20524;-80
2022/07/11 07:17:14;;;;;;;3.60;1.58;;;;;;;;;;4998507;28;20030;-80
2022/07/11 07:19:40;;;;;;;4.32;2.00;;;;;;;;;;4995291;28;20038;-81
2022/07/11 07:22:08;;;;;;;4.82;1.73;;;;;;;;;;4992012;28;20565;-80
2022/07/11 07:24:34;;;;;;;3.92;1.52;;;;;;;;;;4992742;28;20018;-80
2022/07/11 07:27:00;;;;;;;4.75;1.35;;;;;;;;;;5017312;28;20026;-80
2022/07/11 07:29:26;;;;;;;3.50;1.60;;;;;;;;;;5011665;28;20106;-81
2022/07/11 07:31:53;;;;;;;7.40;2.10;;;;;;;;;;5001222;28;20022;-80
2022/07/11 07:34:19;;;;;;;3.40;1.50;;;;;;;;;;5018710;28;20120;-80
2022/07/11 07:36:45;;;;;;;3.10;1.80;;;;;;;;;;5015488;28;20116;-80
2022/07/11 07:39:11;;;;;;;4.45;1.42;;;;;;;;;;5019446;28;20135;-80
2022/07/11 07:41:37;;;;;;;3.30;1.58;;;;;;;;;;5020878;28;20206;-81
2022/07/11 07:44:03;;;;;;;6.43;1.83;;;;;;;;;;5021200;28;20026;-82
2022/07/11 07:46:29;;;;;;;3.83;1.70;;;;;;;;;;5012454;28;20034;-82
2022/07/11 07:48:55;;;;;;;4.88;1.80;;;;;;;;;;5000787;28;20036;-80
2022/07/11 07:51:21;;;;;;;4.00;1.65;;;;;;;;;;5000095;28;20054;-82
2022/07/11 07:53:48;;;;;;;4.15;1.90;;;;;;;;;;5003337;28;20034;-81
2022/07/11 07:56:14;;;;;;;4.10;1.60;;;;;;;;;;5020529;28;20190;-81
2022/07/11 07:58:40;;;;;;;3.35;1.40;;;;;;;;;;5025520;28;20014;-79
2022/07/11 08:03:51;;;;;;;4.25;1.77;;;;;;;;;;4997154;28;20093;-83
2022/07/11 08:06:18;;;;;;;5.82;2.30;;;;;;;;;;4994574;28;20110;-84
2022/07/11 08:08:44;;;;;;;4.40;2.28;;;;;;;;;;4996618;28;20073;-82
2022/07/11 08:11:10;;;;;;;4.53;2.03;;;;;;;;;;4989512;28;20042;-82
2022/07/11 08:13:37;;;;;;;4.28;1.70;;;;;;;;;;4999195;28;20057;-81
2022/07/11 08:16:03;;;;;;;5.35;2.28;;;;;;;;;;5001099;28;20037;-82
2022/07/11 08:18:29;;;;;;;4.38;1.70;;;;;;;;;;5008772;28;20038;-83
2022/07/11 08:20:56;;;;;;;5.43;1.90;;;;;;;;;;4997707;28;20090;-81
2022/07/11 08:23:22;;;;;;;3.85;1.70;;;;;;;;;;4989541;28;20109;-83
2022/07/11 08:25:48;;;;;;;6.13;1.67;;;;;;;;;;4998203;28;20037;-82
2022/07/11 08:28:14;;;;;;;3.70;1.58;;;;;;;;;;4997665;28;20022;-83
2022/07/11 08:30:41;;;;;;;3.85;1.80;;;;;;;;;;4999485;28;20031;-83
2022/07/11 08:33:07;;;;;;;4.32;1.70;;;;;;;;;;4999061;28;20481;-83
2022/07/11 08:35:33;;;;;;;4.70;2.05;;;;;;;;;;4998226;28;20401;-83
2022/07/11 08:37:59;;;;;;;4.95;1.80;;;;;;;;;;5010784;28;20400;-83
2022/07/11 08:40:25;;;;;;;4.07;1.70;;;;;;;;;;4998856;28;20037;-84
2022/07/11 08:42:51;;;;;;;3.88;1.70;;;;;;;;;;4998598;28;20110;-83
2022/07/11 08:45:17;;;;;;;4.45;2.05;;;;;;;;;;4997886;28;20033;-81
2022/07/11 08:47:44;;;;;;;3.58;1.80;;;;;;;;;;4997298;28;20027;-82
2022/07/11 08:50:12;;;;;;;5.30;2.40;;;;;;;;;;4998326;28;20041;-80
2022/07/11 08:52:39;;;;;;;5.40;2.08;;;;;;;;;;4995996;28;20042;-80
2022/07/11 08:55:08;;;;;;;3.78;1.80;;;;;;;;;;4996651;28;20084;-81
2022/07/11 08:57:35;;;;;;;4.20;2.20;;;;;;;;;;4990857;28;20036;-81
2022/07/11 09:00:01;;;;;;;5.28;2.28;;;;;;;;;;4997947;28;20052;-83
2022/07/11 09:02:28;;;;;;;5.47;2.40;;;;;;;;;;4998857;28;20072;-81
2022/07/11 09:04:54;;;;;;;6.18;2.40;;;;;;;;;;4999235;28;20049;-79
2022/07/11 09:07:20;;;;;;;5.00;2.42;;;;;;;;;;4999686;28;20029;-80
2022/07/11 09:09:46;;;;;;;5.00;2.25;;;;;;;;;;4993297;28;20031;-80
2022/07/11 09:12:15;;;;;;;4.80;2.55;;;;;;;;;;4994855;28;20404;-83
2022/07/11 09:14:46;;;;;;;6.10;4.63;;;;;;;;;;4994221;28;20034;-82
2022/07/11 09:17:12;;;;;;;5.15;2.35;;;;;;;;;;4995337;28;20034;-82
2022/07/11 09:19:39;;;;;;;5.13;2.38;;;;;;;;;;4999244;28;20022;-82
2022/07/11 09:27:47;;;;;;;5.50;2.58;;;;;;;;;;4999532;28;20033;-81
2022/07/11 09:30:22;;;;;;;5.22;2.20;;;;;;;;;;5001373;28;20117;-81
2022/07/11 09:33:09;;;;;;;4.68;2.20;;;;;;;;;;4996748;28;20034;-81
2022/07/11 09:35:42;;;;;;;6.03;2.50;;;;;;;;;;4997248;28;20069;-82
2022/07/11 09:38:09;;;;;;;5.22;2.60;;;;;;;;;;5008111;28;20030;-81
2022/07/11 09:40:35;;;;;;;4.10;2.22;;;;;;;;;;4997781;28;20030;-79
2022/07/11 09:43:01;;;;;;;4.22;2.20;;;;;;;;;;4998107;28;20038;-80
2022/07/11 09:45:29;;;;;;;5.50;2.22;;;;;;;;;;4996657;28;20551;-81
2022/07/11 09:47:56;;;;;;;5.50;2.33;;;;;;;;;;4986814;28;20054;-81
2022/07/11 09:50:23;;;;;;;5.78;2.50;;;;;;;;;;4996166;28;20568;-80
2022/07/11 09:52:59;;;;;;;4.40;1.60;;;;;;;;;;4996351;28;20077;-82
2022/07/11 09:55:26;;;;;;;6.60;2.17;;;;;;;;;;4984962;28;20495;-82
2022/07/11 09:57:53;;;;;;;4.35;1.65;;;;;;;;;;4987935;28;20031;-80
2022/07/11 10:00:19;;;;;;;3.97;1.60;;;;;;;;;;4996462;28;20073;-81
2022/07/11 10:02:45;;;;;;;5.10;1.60;;;;;;;;;;4993695;28;20113;-82
2022/07/11 10:05:11;;;;;;;4.78;1.77;;;;;;;;;;4994497;28;20501;-80
2022/07/11 10:07:37;;;;;;;5.38;2.17;;;;;;;;;;4998599;28;20037;-81
2022/07/11 10:10:04;;;;;;;6.60;2.65;;;;;;;;;;4997060;28;20038;-82
2022/07/11 10:12:32;;;;;;;4.30;1.75;;;;;;;;;;4998345;28;20587;-80
2022/07/11 10:15:00;;;;;;;4.72;2.03;;;;;;;;;;5003645;28;20081;-81
2022/07/11 10:17:29;;;;;;;4.80;1.95;;;;;;;;;;4999420;28;20030;-83
2022/07/11 10:20:03;;;;;;;4.55;1.83;;;;;;;;;;4992005;28;20034;-81
2022/07/11 10:22:29;;;;;;;3.60;1.60;;;;;;;;;;4996176;28;20412;-79
2022/07/11 10:24:58;;;;;;;4.93;1.70;;;;;;;;;;4993285;28;20029;-82
2022/07/11 10:27:30;;;;;;;5.15;1.95;;;;;;;;;;4993279;28;20211;-81
2022/07/11 10:29:56;;;;;;;4.90;1.75;;;;;;;;;;4997055;28;20134;-80
2022/07/11 10:32:22;;;;;;;4.00;1.42;;;;;;;;;;5004503;28;20022;-83
2022/07/11 10:35:06;;;;;;;3.67;1.50;;;;;;;;;;4997050;28;20051;-80
2022/07/11 10:37:46;;;;;;;4.25;1.40;;;;;;;;;;5011353;28;20096;-81
2022/07/11 10:40:12;;;;;;;3.22;1.40;;;;;;;;;;5017587;28;20030;-81
2022/07/11 10:42:39;;;;;;;5.75;2.08;;;;;;;;;;5017778;28;20029;-81
2022/07/11 10:45:07;;;;;;;7.22;1.65;;;;;;;;;;5017336;28;20530;-81
2022/07/11 10:47:43;;;;;;;3.67;1.33;;;;;;;;;;5014477;28;20072;-83
2022/07/11 10:50:21;;;;;;;4.50;1.42;;;;;;;;;;5016394;28;20026;-82
2022/07/11 10:52:54;;;;;;;5.60;1.92;;;;;;;;;;4990600;28;20046;-81
2022/07/11 10:55:28;;;;;;;3.45;1.38;;;;;;;;;;4996421;28;20033;-82
2022/07/11 10:58:11;;;;;;;3.95;1.40;;;;;;;;;;4996561;28;20023;-82
2022/07/11 11:00:37;;;;;;;;;;;;;;;;;;4990880;28;20053;-82
2022/07/11 11:03:06;;;;;;;3.25;1.38;;;;;;;;;;5001175;28;19906;-81
2022/07/11 11:05:52;;;;;;;3.90;1.80;;;;;;;;;;5003554;28;20501;-82
2022/07/11 11:08:31;;;;;;;4.50;1.50;;;;;;;;;;5022946;28;20031;-78
2022/07/11 11:10:56;;;;;;;4.43;1.38;;;;;;;;;;5017312;28;20027;-82
2022/07/11 11:13:23;;;;;;;4.88;1.48;;;;;;;;;;5000614;28;20030;-82
2022/07/11 11:15:55;;;;;;;4.07;1.48;;;;;;;;;;4999324;28;20038;-81
2022/07/11 11:18:27;;;;;;;3.67;1.38;;;;;;;;;;4998050;28;20504;-81
2022/07/11 11:21:09;;;;;;;4.93;1.67;;;;;;;;;;5000518;28;20500;-81
2022/07/11 11:23:39;;;;;;;3.63;1.48;;;;;;;;;;5004255;28;20057;-83
2022/07/11 11:26:08;;;;;;;3.35;1.30;;;;;;;;;;4996824;28;20022;-81
2022/07/11 11:28:35;;;;;;;2.88;1.30;;;;;;;;;;4998746;28;20046;-81
2022/07/11 11:31:08;;;;;;;3.40;1.55;;;;;;;;;;5001012;28;20080;-79
2022/07/11 11:33:35;;;;;;;5.28;1.67;;;;;;;;;;4999225;28;20022;-82
2022/07/11 11:36:06;;;;;;;4.35;1.92;;;;;;;;;;4998721;28;20046;-81
2022/07/11 11:38:35;;;;;;;4.35;1.95;;;;;;;;;;4997262;28;20041;-81
2022/07/11 11:41:02;;;;;;;3.13;1.50;;;;;;;;;;4999871;28;20030;-81
2022/07/11 11:43:28;;;;;;;5.10;1.63;;;;;;;;;;5001213;28;20192;-82
2022/07/11 11:45:54;;;;;;;5.13;2.00;;;;;;;;;;4998012;28;20058;-82
2022/07/11 11:48:33;;;;;;;4.75;1.60;;;;;;;;;;5000619;28;20156;-84
2022/07/11 11:51:07;;;;;;;5.65;1.55;;;;;;;;;;4998433;28;20057;-81
2022/07/11 11:53:52;;;;;;;3.20;1.65;;;;;;;;;;4997670;28;20044;-82
2022/07/11 11:56:29;;;;;;;3.97;1.70;;;;;;;;;;4992738;28;20033;-82
2022/07/11 11:59:11;;;;;;;5.00;1.63;;;;;;;;;;4992826;28;20054;-82
2022/07/11 12:01:40;;;;;;;4.53;1.70;;;;;;;;;;4997842;28;20018;-81
2022/07/11 12:04:08;;;;;;;3.40;1.55;;;;;;;;;;4982048;28;20026;-79
2022/07/11 12:06:35;;;;;;;5.45;2.00;;;;;;;;;;4988344;28;20073;-81
2022/07/11 12:09:01;;;;;;;4.57;1.80;;;;;;;;;;5000048;28;20113;-81
2022/07/11 12:11:27;;;;;;;4.75;1.70;;;;;;;;;;5012995;28;20110;-83
2022/07/11 12:14:00;;;;;;;3.33;1.60;;;;;;;;;;5011301;28;20402;-83
2022/07/11 12:16:39;;;;;;;4.53;1.65;;;;;;;;;;4981407;28;20031;-83
2022/07/11 12:19:07;;;;;;;3.63;1.88;;;;;;;;;;4981526;28;20034;-83
2022/07/11 12:21:33;;;;;;;3.70;1.50;;;;;;;;;;4988599;28;20073;-82
2022/07/11 12:24:00;;;;;;;3.70;1.60;;;;;;;;;;5000211;28;20179;-81
2022/07/11 12:26:29;;;;;;;3.92;1.67;;;;;;;;;;5009286;28;20493;-81
2022/07/11 12:29:24;;;;;;;6.65;1.85;;;;;;;;;;4999083;28;20034;-82
2022/07/11 12:31:56;;;;;;;4.45;1.70;;;;;;;;;;4995413;28;20038;-79
2022/07/11 12:34:27;;;;;;;3.47;1.45;;;;;;;;;;4999552;28;20029;-82
2022/07/11 12:37:02;;;;;;;3.33;1.60;;;;;;;;;;4999920;28;20038;-83
2022/07/11 12:39:30;;;;;;;4.40;1.90;;;;;;;;;;5015064;28;20053;-82
2022/07/11 12:41:59;;;;;;;5.78;1.63;;;;;;;;;;5019904;28;20026;-84
2022/07/11 12:47:11;;;;;;;3.67;1.58;;;;;;;;;;5002055;28;20029;-81
2022/07/11 12:49:40;;;;;;;4.55;1.73;;;;;;;;;;5019711;28;20137;-81
2022/07/11 12:52:06;;;;;;;3.97;1.70;;;;;;;;;;5012146;28;20381;-82
2022/07/11 12:54:33;;;;;;;4.82;2.00;;;;;;;;;;5005691;28;20062;-82
2022/07/11 12:57:03;;;;;;;4.18;1.65;;;;;;;;;;4998752;28;20049;-84
2022/07/11 12:59:31;;;;;;;4.55;1.73;;;;;;;;;;5000231;28;20030;-82
2022/07/11 13:02:03;;;;;;;4.40;1.65;;;;;;;;;;5000378;28;20397;-82
2022/07/11 13:04:43;;;;;;;4.03;1.70;;;;;;;;;;5000540;28;20069;-81
2022/07/11 13:10:23;;;;;;;9.15;2.70;;;;;;;;;;4999631;28;20061;-81
2022/07/11 13:12:51;;;;;;;23.45;3.47;;;;;;;;;;5019272;28;20084;-82
2022/07/11 13:15:18;;;;;;;5.85;1.77;;;;;;;;;;5018846;28;20113;-80
2022/07/11 13:17:54;;;;;;;3.90;1.67;;;;;;;;;;5019708;28;20487;-83
2022/07/11 13:20:21;;;;;;;3.58;1.55;;;;;;;;;;5008565;28;20057;-83
2022/07/11 13:22:49;;;;;;;4.75;1.77;;;;;;;;;;5005465;28;20085;-83
2022/07/11 13:25:16;;;;;;;6.25;1.90;;;;;;;;;;4999537;28;20014;-80
2022/07/11 13:27:43;;;;;;;4.47;1.80;;;;;;;;;;4998567;28;20026;-83
2022/07/11 13:30:16;;;;;;;5.35;1.95;;;;;;;;;;5002537;28;20022;-85
2022/07/11 13:32:42;;;;;;;4.65;1.60;;;;;;;;;;5016226;28;20035;-83
2022/07/11 13:35:08;;;;;;;3.38;1.58;;;;;;;;;;5019234;28;20046;-83
2022/07/11 13:37:37;;;;;;;5.90;2.20;;;;;;;;;;5019730;28;20029;-83
2022/07/11 13:40:04;;;;;;;4.05;1.95;;;;;;;;;;5016894;28;20033;-82
2022/07/11 13:42:32;;;;;;;4.60;2.08;;;;;;;;;;5016942;28;20522;-81
2022/07/11 13:44:58;;;;;;;4.35;1.92;;;;;;;;;;5018292;28;20044;-81
2022/07/11 13:47:24;;;;;;;3.78;2.13;;;;;;;;;;5009267;28;20023;-81
2022/07/11 13:49:50;;;;;;;6.72;1.92;;;;;;;;;;4999995;28;20526;-82
2022/07/11 13:52:16;;;;;;;4.13;1.67;;;;;;;;;;4999434;28;20106;-81
2022/07/11 13:54:42;;;;;;;3.90;1.70;;;;;;;;;;4995374;28;20042;-81
2022/07/11 13:57:09;;;;;;;3.40;1.58;;;;;;;;;;4998737;28;20032;-82
2022/07/11 13:59:35;;;;;;;5.88;1.77;;;;;;;;;;5016255;28;20100;-83
2022/07/11 14:02:02;;;;;;;4.05;1.70;;;;;;;;;;4997775;28;20038;-82
2022/07/11 14:04:28;;;;;;;2.85;1.42;;;;;;;;;;5004573;28;20030;-81
2022/07/11 14:06:54;;;;;;;4.13;1.95;;;;;;;;;;4998713;28;20042;-81
2022/07/11 14:09:20;;;;;;;5.30;2.08;;;;;;;;;;4996759;28;20041;-81
2022/07/11 14:11:46;;;;;;;4.13;1.70;;;;;;;;;;4998026;28;20038;-81
2022/07/11 14:14:12;;;;;;;4.22;2.08;;;;;;;;;;4994282;28;21123;-79
2022/07/11 14:16:38;;;;;;;5.15;2.05;;;;;;;;;;5016604;28;20455;-82
2022/07/11 14:19:07;;;;;;;4.60;1.98;;;;;;;;;;5006994;28;20112;-81
2022/07/11 14:21:34;;;;;;;4.22;1.67;;;;;;;;;;5016194;28;20038;-78
2022/07/11 14:24:00;;;;;;;3.95;1.67;;;;;;;;;;5015757;28;20022;-79
2022/07/11 14:26:26;;;;;;;4.85;1.52;;;;;;;;;;5016583;28;20046;-77
2022/07/11 14:28:52;;;;;;;3.60;1.60;;;;;;;;;;5014186;28;20042;-81
2022/07/11 14:31:19;;;;;;;4.78;1.77;;;;;;;;;;5015773;28;20106;-82
2022/07/11 14:33:45;;;;;;;3.97;1.75;;;;;;;;;;5017486;28;20147;-77
2022/07/11 14:36:11;;;;;;;5.90;1.95;;;;;;;;;;5017040;28;20129;-79
2022/07/11 14:38:39;;;;;;;3.53;1.40;;;;;;;;;;5004631;28;20030;-82
2022/07/11 14:41:05;;;;;;;3.47;1.50;;;;;;;;;;5009743;28;20022;-81
2022/07/11 14:43:31;;;;;;;4.20;1.60;;;;;;;;;;4999764;28;20018;-82
2022/07/11 14:45:58;;;;;;;3.53;1.40;;;;;;;;;;4991654;28;20485;-79
2022/07/11 14:48:24;;;;;;;4.50;1.60;;;;;;;;;;4995130;28;20161;-83
2022/07/11 14:50:50;;;;;;;5.15;1.58;;;;;;;;;;5006748;28;20049;-81
2022/07/11 14:53:16;;;;;;;4.57;1.75;;;;;;;;;;5006765;28;20030;-78
2022/07/11 14:55:43;;;;;;;4.63;1.75;;;;;;;;;;4999337;28;20026;-80
2022/07/11 14:58:09;;;;;;;4.40;1.70;;;;;;;;;;4996751;28;20072;-80
2022/07/11 15:00:35;;;;;;;3.72;1.60;;;;;;;;;;4997960;28;20031;-80
2022/07/11 15:05:45;;;;;;;4.13;1.80;;;;;;;;;;4977730;28;20046;-80